sensor_id;sensor_type;location;lat;lon;timestamp;pressure;altitude;pressure_sealevel;temperature;humidity
83512;BME280;73446;0.000;0.000;2024-02-16T00:01:03;98547.66;;;20.59;36.65
83512;BME280;73446;0.000;0.000;2024-02-16T00:03:47;98552.47;;;20.57;36.50
83512;BME280;73446;0.000;0.000;2024-02-16T00:06:31;98554.88;;;20.59;36.41
83512;BME280;73446;0.000;0.000;2024-02-16T00:09:14;98549.25;;;20.60;36.48
83512;BME280;73446;0.000;0.000;2024-02-16T00:11:59;98545.78;;;20.60;36.72
83512;BME280;73446;0.000;0.000;2024-02-16T00:14:43;98543.38;;;20.58;36.68
83512;BME280;73446;0.000;0.000;2024-02-16T00:17:29;98552.47;;;20.57;36.73
83512;BME280;73446;0.000;0.000;2024-02-16T00:20:14;98545.53;;;20.56;36.65
83512;BME280;73446;0.000;0.000;2024-02-16T00:22:58;98539.41;;;20.56;36.59
83512;BME280;73446;0.000;0.000;2024-02-16T00:25:42;98534.88;;;20.56;36.84
83512;BME280;73446;0.000;0.000;2024-02-16T00:28:27;98539.41;;;20.56;36.54
83512;BME280;73446;0.000;0.000;2024-02-16T00:31:11;98538.59;;;20.55;36.62
83512;BME280;73446;0.000;0.000;2024-02-16T00:33:55;98541.28;;;20.55;36.62
83512;BME280;73446;0.000;0.000;2024-02-16T00:36:39;98547.69;;;20.54;36.53
83512;BME280;73446;0.000;0.000;2024-02-16T00:39:23;98550.09;;;20.56;36.55
83512;BME280;73446;0.000;0.000;2024-02-16T00:42:08;98543.16;;;20.55;36.45
83512;BME280;73446;0.000;0.000;2024-02-16T00:44:52;98545.03;;;20.54;36.64
83512;BME280;73446;0.000;0.000;2024-02-16T00:47:36;98537.81;;;20.55;36.63
83512;BME280;73446;0.000;0.000;2024-02-16T00:50:20;98546.91;;;20.54;36.76
83512;BME280;73446;0.000;0.000;2024-02-16T00:53:04;98536.50;;;20.52;36.45
83512;BME280;73446;0.000;0.000;2024-02-16T00:55:49;98536.50;;;20.52;36.57
83512;BME280;73446;0.000;0.000;2024-02-16T00:58:33;98541.84;;;20.52;36.48
83512;BME280;73446;0.000;0.000;2024-02-16T01:01:17;98553.59;;;20.51;36.48
83512;BME280;73446;0.000;0.000;2024-02-16T01:04:02;98544.00;;;20.50;36.67
83512;BME280;73446;0.000;0.000;2024-02-16T01:06:46;98544.00;;;20.50;36.74
83512;BME280;73446;0.000;0.000;2024-02-16T01:09:30;98540.53;;;20.50;36.53
83512;BME280;73446;0.000;0.000;2024-02-16T01:12:14;98537.56;;;20.51;36.60
83512;BME280;73446;0.000;0.000;2024-02-16T01:14:58;98538.94;;;20.49;36.71
83512;BME280;73446;0.000;0.000;2024-02-16T01:17:43;98530.66;;;20.50;36.56
83512;BME280;73446;0.000;0.000;2024-02-16T01:20:27;98526.38;;;20.49;36.51
83512;BME280;73446;0.000;0.000;2024-02-16T01:23:14;98534.38;;;20.49;36.78
83512;BME280;73446;0.000;0.000;2024-02-16T01:25:58;98532.78;;;20.48;36.79
83512;BME280;73446;0.000;0.000;2024-02-16T01:28:43;98534.38;;;20.49;36.57
83512;BME280;73446;0.000;0.000;2024-02-16T01:31:27;98524.78;;;20.48;36.64
83512;BME280;73446;0.000;0.000;2024-02-16T01:34:11;98530.13;;;20.48;36.59
83512;BME280;73446;0.000;0.000;2024-02-16T01:36:56;98522.91;;;20.49;36.59
83512;BME280;73446;0.000;0.000;2024-02-16T01:39:40;98521.03;;;20.49;36.83
83512;BME280;73446;0.000;0.000;2024-02-16T01:42:24;98518.38;;;20.49;36.66
83512;BME280;73446;0.000;0.000;2024-02-16T01:45:09;98522.91;;;20.49;36.30
83512;BME280;73446;0.000;0.000;2024-02-16T01:47:54;98521.03;;;20.49;36.80
83512;BME280;73446;0.000;0.000;2024-02-16T01:50:38;98513.03;;;20.49;36.55
83512;BME280;73446;0.000;0.000;2024-02-16T01:53:23;98514.13;;;20.48;36.46
83512;BME280;73446;0.000;0.000;2024-02-16T01:56:11;98516.78;;;20.48;36.63
83512;BME280;73446;0.000;0.000;2024-02-16T01:58:56;98524.50;;;20.50;36.73
83512;BME280;73446;0.000;0.000;2024-02-16T02:01:39;98517.28;;;20.50;36.69
83512;BME280;73446;0.000;0.000;2024-02-16T02:04:23;98515.72;;;20.49;36.49
83512;BME280;73446;0.000;0.000;2024-02-16T02:07:14;98522.91;;;20.49;36.40
83512;BME280;73446;0.000;0.000;2024-02-16T02:09:59;98525.31;;;20.50;36.38
83512;BME280;73446;0.000;0.000;2024-02-16T02:12:43;98530.66;;;20.50;36.32
83512;BME280;73446;0.000;0.000;2024-02-16T02:15:28;98527.19;;;20.50;36.48
83512;BME280;73446;0.000;0.000;2024-02-16T02:18:12;98523.72;;;20.49;36.51
83512;BME280;73446;0.000;0.000;2024-02-16T02:20:56;98521.84;;;20.50;36.19
83512;BME280;73446;0.000;0.000;2024-02-16T02:23:41;98518.38;;;20.49;36.78
83512;BME280;73446;0.000;0.000;2024-02-16T02:26:25;98513.03;;;20.49;36.48
83512;BME280;73446;0.000;0.000;2024-02-16T02:29:09;98502.34;;;20.49;36.44
83512;BME280;73446;0.000;0.000;2024-02-16T02:31:53;98499.69;;;20.49;36.44
83512;BME280;73446;0.000;0.000;2024-02-16T02:34:38;98511.97;;;20.50;36.22
83512;BME280;73446;0.000;0.000;2024-02-16T02:37:22;98511.97;;;20.50;36.31
83512;BME280;73446;0.000;0.000;2024-02-16T02:40:07;98509.28;;;20.50;36.38
83512;BME280;73446;0.000;0.000;2024-02-16T02:42:52;98503.16;;;20.50;36.21
83512;BME280;73446;0.000;0.000;2024-02-16T02:45:36;98511.69;;;20.52;36.32
83512;BME280;73446;0.000;0.000;2024-02-16T02:48:20;98508.22;;;20.51;36.35
83512;BME280;73446;0.000;0.000;2024-02-16T02:51:04;98505.81;;;20.50;36.29
83512;BME280;73446;0.000;0.000;2024-02-16T02:53:48;98503.94;;;20.50;36.05
83512;BME280;73446;0.000;0.000;2024-02-16T02:56:32;98497.81;;;20.50;36.33
83512;BME280;73446;0.000;0.000;2024-02-16T02:59:16;98498.63;;;20.50;36.33
83512;BME280;73446;0.000;0.000;2024-02-16T03:02:00;98494.06;;;20.51;36.10
83512;BME280;73446;0.000;0.000;2024-02-16T03:04:44;98497.03;;;20.49;36.16
83512;BME280;73446;0.000;0.000;2024-02-16T03:07:28;98497.03;;;20.49;36.19
83512;BME280;73446;0.000;0.000;2024-02-16T03:10:12;98495.94;;;20.50;36.07
83512;BME280;73446;0.000;0.000;2024-02-16T03:12:58;98503.94;;;20.50;36.35
83512;BME280;73446;0.000;0.000;2024-02-16T03:15:42;98494.88;;;20.51;36.21
83512;BME280;73446;0.000;0.000;2024-02-16T03:18:30;98494.06;;;20.51;36.20
83512;BME280;73446;0.000;0.000;2024-02-16T03:21:14;98493.28;;;20.50;36.22
83512;BME280;73446;0.000;0.000;2024-02-16T03:24:02;98489.00;;;20.49;36.24
83512;BME280;73446;0.000;0.000;2024-02-16T03:26:47;98494.88;;;20.51;35.97
83512;BME280;73446;0.000;0.000;2024-02-16T03:29:32;98494.06;;;20.51;36.29
83512;BME280;73446;0.000;0.000;2024-02-16T03:32:16;98489.81;;;20.50;36.13
83512;BME280;73446;0.000;0.000;2024-02-16T03:35:00;98487.13;;;20.50;35.89
83512;BME280;73446;0.000;0.000;2024-02-16T03:37:44;98485.25;;;20.50;36.05
83512;BME280;73446;0.000;0.000;2024-02-16T03:40:28;98494.06;;;20.51;36.12
83512;BME280;73446;0.000;0.000;2024-02-16T03:43:12;98498.63;;;20.50;36.14
83512;BME280;73446;0.000;0.000;2024-02-16T03:45:57;98495.94;;;20.50;35.95
83512;BME280;73446;0.000;0.000;2024-02-16T03:48:41;98494.88;;;20.51;35.68
83512;BME280;73446;0.000;0.000;2024-02-16T03:51:25;98495.66;;;20.52;35.78
83512;BME280;73446;0.000;0.000;2024-02-16T03:54:10;98500.19;;;20.51;36.06
83512;BME280;73446;0.000;0.000;2024-02-16T03:56:54;98501.28;;;20.50;36.04
83512;BME280;73446;0.000;0.000;2024-02-16T03:59:38;98501.28;;;20.50;35.89
83512;BME280;73446;0.000;0.000;2024-02-16T04:02:23;98504.75;;;20.51;35.85
83512;BME280;73446;0.000;0.000;2024-02-16T04:05:07;98506.63;;;20.50;35.67
83512;BME280;73446;0.000;0.000;2024-02-16T04:07:51;98497.81;;;20.50;35.20
83512;BME280;73446;0.000;0.000;2024-02-16T04:10:35;98504.75;;;20.51;35.08
83512;BME280;73446;0.000;0.000;2024-02-16T04:13:19;98509.00;;;20.52;34.99
83512;BME280;73446;0.000;0.000;2024-02-16T04:16:04;98507.13;;;20.52;34.46
83512;BME280;73446;0.000;0.000;2024-02-16T04:18:48;98502.59;;;20.53;34.43
83512;BME280;73446;0.000;0.000;2024-02-16T04:21:32;98506.84;;;20.54;34.44
83512;BME280;73446;0.000;0.000;2024-02-16T04:24:16;98511.91;;;20.55;34.44
83512;BME280;73446;0.000;0.000;2024-02-16T04:27:00;98517.25;;;20.55;34.30
83512;BME280;73446;0.000;0.000;2024-02-16T04:29:44;98512.47;;;20.52;34.87
83512;BME280;73446;0.000;0.000;2024-02-16T04:32:28;98522.34;;;20.52;35.17
83512;BME280;73446;0.000;0.000;2024-02-16T04:35:13;98520.47;;;20.52;35.05
83512;BME280;73446;0.000;0.000;2024-02-16T04:37:58;98518.34;;;20.54;34.99
83512;BME280;73446;0.000;0.000;2024-02-16T04:40:42;98526.84;;;20.56;34.60
83512;BME280;73446;0.000;0.000;2024-02-16T04:43:27;98526.56;;;20.58;34.39
83512;BME280;73446;0.000;0.000;2024-02-16T04:46:15;98530.03;;;20.58;34.70
83512;BME280;73446;0.000;0.000;2024-02-16T04:48:59;98536.97;;;20.59;34.69
83512;BME280;73446;0.000;0.000;2024-02-16T04:51:43;98534.81;;;20.62;34.63
83512;BME280;73446;0.000;0.000;2024-02-16T04:54:27;98535.59;;;20.62;34.32
83512;BME280;73446;0.000;0.000;2024-02-16T04:57:11;98536.38;;;20.63;34.42
83512;BME280;73446;0.000;0.000;2024-02-16T04:59:55;98535.31;;;20.64;34.31
83512;BME280;73446;0.000;0.000;2024-02-16T05:02:39;98547.84;;;20.63;34.26
83512;BME280;73446;0.000;0.000;2024-02-16T05:05:23;98544.63;;;20.66;34.32
83512;BME280;73446;0.000;0.000;2024-02-16T05:08:09;98556.09;;;20.67;34.03
83512;BME280;73446;0.000;0.000;2024-02-16T05:10:56;98547.00;;;20.68;34.01
83512;BME280;73446;0.000;0.000;2024-02-16T05:13:40;98552.06;;;20.69;33.91
83512;BME280;73446;0.000;0.000;2024-02-16T05:16:27;98539.53;;;20.70;34.11
83512;BME280;73446;0.000;0.000;2024-02-16T05:19:11;98544.88;;;20.70;34.14
83512;BME280;73446;0.000;0.000;2024-02-16T05:21:55;98545.66;;;20.70;33.97
83512;BME280;73446;0.000;0.000;2024-02-16T05:24:39;98533.63;;;20.73;33.79
83512;BME280;73446;0.000;0.000;2024-02-16T05:27:24;98534.41;;;20.73;33.97
83512;BME280;73446;0.000;0.000;2024-02-16T05:30:12;98525.31;;;20.74;33.69
83512;BME280;73446;0.000;0.000;2024-02-16T05:32:56;98535.72;;;20.76;33.75
83512;BME280;73446;0.000;0.000;2024-02-16T05:35:42;98535.44;;;20.77;33.77
83512;BME280;73446;0.000;0.000;2024-02-16T05:38:28;98536.25;;;20.78;33.65
83512;BME280;73446;0.000;0.000;2024-02-16T05:41:24;98537.00;;;20.78;33.46
83512;BME280;73446;0.000;0.000;2024-02-16T05:44:08;98537.53;;;20.80;33.43
83512;BME280;73446;0.000;0.000;2024-02-16T05:46:53;98542.59;;;20.82;33.27
83512;BME280;73446;0.000;0.000;2024-02-16T05:49:38;98546.03;;;20.82;33.15
83512;BME280;73446;0.000;0.000;2024-02-16T05:52:22;98551.09;;;20.84;32.97
83512;BME280;73446;0.000;0.000;2024-02-16T05:55:08;98549.28;;;20.79;33.19
83512;BME280;73446;0.000;0.000;2024-02-16T05:57:55;98544.06;;;20.69;33.56
83512;BME280;73446;0.000;0.000;2024-02-16T06:00:39;98547.84;;;20.63;34.00
83512;BME280;73446;0.000;0.000;2024-02-16T06:03:23;98551.56;;;20.67;34.19
83512;BME280;73446;0.000;0.000;2024-02-16T06:06:07;98556.56;;;20.74;33.95
83512;BME280;73446;0.000;0.000;2024-02-16T06:08:52;98552.25;;;20.78;33.69
83512;BME280;73446;0.000;0.000;2024-02-16T06:15:19;98571.97;;;20.82;33.51
83512;BME280;73446;0.000;0.000;2024-02-16T06:18:03;98574.63;;;20.82;33.18
83512;BME280;73446;0.000;0.000;2024-02-16T06:20:47;98579.97;;;20.82;33.19
83512;BME280;73446;0.000;0.000;2024-02-16T06:23:31;98574.34;;;20.83;33.09
83512;BME280;73446;0.000;0.000;2024-02-16T06:26:15;98586.91;;;20.83;33.07
83512;BME280;73446;0.000;0.000;2024-02-16T06:28:59;98587.69;;;20.83;32.78
83512;BME280;73446;0.000;0.000;2024-02-16T06:31:44;98590.38;;;20.83;32.77
83512;BME280;73446;0.000;0.000;2024-02-16T06:34:28;98598.38;;;20.83;33.06
83512;BME280;73446;0.000;0.000;2024-02-16T06:37:12;98594.91;;;20.83;32.84
83512;BME280;73446;0.000;0.000;2024-02-16T06:39:56;98596.78;;;20.82;33.04
83512;BME280;73446;0.000;0.000;2024-02-16T06:42:40;98606.69;;;20.82;33.04
83512;BME280;73446;0.000;0.000;2024-02-16T06:45:24;98605.88;;;20.81;32.99
83512;BME280;73446;0.000;0.000;2024-02-16T06:48:09;98610.72;;;20.79;33.14
83512;BME280;73446;0.000;0.000;2024-02-16T06:50:53;98605.69;;;20.78;33.27
83512;BME280;73446;0.000;0.000;2024-02-16T06:53:37;98611.00;;;20.78;33.30
83512;BME280;73446;0.000;0.000;2024-02-16T06:56:21;98614.75;;;20.77;33.32
83512;BME280;73446;0.000;0.000;2024-02-16T06:59:05;98612.38;;;20.75;33.43
83512;BME280;73446;0.000;0.000;2024-02-16T07:01:49;98612.66;;;20.74;33.45
83512;BME280;73446;0.000;0.000;2024-02-16T07:04:33;98619.06;;;20.73;33.38
83512;BME280;73446;0.000;0.000;2024-02-16T07:07:17;98625.50;;;20.72;33.55
83512;BME280;73446;0.000;0.000;2024-02-16T07:10:02;98628.44;;;20.70;33.57
83512;BME280;73446;0.000;0.000;2024-02-16T07:12:49;98632.19;;;20.69;33.83
83512;BME280;73446;0.000;0.000;2024-02-16T07:15:35;98640.19;;;20.69;33.89
83512;BME280;73446;0.000;0.000;2024-02-16T07:18:19;98643.13;;;20.68;33.89
83512;BME280;73446;0.000;0.000;2024-02-16T07:21:05;98637.81;;;20.68;33.77
83512;BME280;73446;0.000;0.000;2024-02-16T07:23:49;98643.13;;;20.68;34.11
83512;BME280;73446;0.000;0.000;2024-02-16T07:26:33;98646.88;;;20.67;34.24
83512;BME280;73446;0.000;0.000;2024-02-16T07:29:17;98634.34;;;20.67;34.19
83512;BME280;73446;0.000;0.000;2024-02-16T07:32:01;98638.34;;;20.65;34.19
83512;BME280;73446;0.000;0.000;2024-02-16T07:34:47;98644.22;;;20.67;34.18
83512;BME280;73446;0.000;0.000;2024-02-16T07:37:31;98641.53;;;20.67;34.24
83512;BME280;73446;0.000;0.000;2024-02-16T07:40:16;98646.09;;;20.66;34.49
83512;BME280;73446;0.000;0.000;2024-02-16T07:43:00;98638.34;;;20.65;34.31
83512;BME280;73446;0.000;0.000;2024-02-16T07:45:44;98645.56;;;20.64;34.56
83512;BME280;73446;0.000;0.000;2024-02-16T07:48:28;98647.44;;;20.64;34.18
83512;BME280;73446;0.000;0.000;2024-02-16T07:51:13;98658.13;;;20.64;34.54
83512;BME280;73446;0.000;0.000;2024-02-16T07:53:57;98655.72;;;20.62;34.41
83512;BME280;73446;0.000;0.000;2024-02-16T07:56:41;98650.13;;;20.64;34.56
83512;BME280;73446;0.000;0.000;2024-02-16T07:59:25;98650.38;;;20.62;34.45
83512;BME280;73446;0.000;0.000;2024-02-16T08:02:09;98643.75;;;20.59;34.46
83512;BME280;73446;0.000;0.000;2024-02-16T08:04:59;98655.25;;;20.60;34.51
83512;BME280;73446;0.000;0.000;2024-02-16T08:07:46;98660.59;;;20.60;34.86
83512;BME280;73446;0.000;0.000;2024-02-16T08:10:30;98664.31;;;20.59;34.80
83512;BME280;73446;0.000;0.000;2024-02-16T08:13:14;98656.31;;;20.59;34.85
83512;BME280;73446;0.000;0.000;2024-02-16T08:15:58;98664.03;;;20.60;34.89
83512;BME280;73446;0.000;0.000;2024-02-16T08:18:45;98665.91;;;20.60;34.92
83512;BME280;73446;0.000;0.000;2024-02-16T08:21:29;98671.25;;;20.60;35.06
83512;BME280;73446;0.000;0.000;2024-02-16T08:24:14;98667.78;;;20.59;35.15
83512;BME280;73446;0.000;0.000;2024-02-16T08:26:58;98676.88;;;20.58;35.17
83512;BME280;73446;0.000;0.000;2024-02-16T08:29:42;98676.88;;;20.58;35.12
83512;BME280;73446;0.000;0.000;2024-02-16T08:32:26;98683.00;;;20.59;35.14
83512;BME280;73446;0.000;0.000;2024-02-16T08:35:10;98690.22;;;20.58;35.06
83512;BME280;73446;0.000;0.000;2024-02-16T08:37:54;98693.97;;;20.57;34.95
83512;BME280;73446;0.000;0.000;2024-02-16T08:40:39;98693.97;;;20.57;35.17
83512;BME280;73446;0.000;0.000;2024-02-16T08:43:23;98691.28;;;20.57;35.05
83512;BME280;73446;0.000;0.000;2024-02-16T08:46:07;98695.56;;;20.58;35.08
83512;BME280;73446;0.000;0.000;2024-02-16T08:48:51;98689.44;;;20.58;34.85
83512;BME280;73446;0.000;0.000;2024-02-16T08:51:35;98692.09;;;20.58;34.79
83512;BME280;73446;0.000;0.000;2024-02-16T08:54:19;98693.97;;;20.57;35.06
83512;BME280;73446;0.000;0.000;2024-02-16T08:57:03;98695.56;;;20.58;34.99
83512;BME280;73446;0.000;0.000;2024-02-16T08:59:49;98697.16;;;20.59;35.31
83512;BME280;73446;0.000;0.000;2024-02-16T09:02:33;98694.50;;;20.59;34.96
83512;BME280;73446;0.000;0.000;2024-02-16T09:05:17;98697.44;;;20.58;34.96
83512;BME280;73446;0.000;0.000;2024-02-16T09:08:02;98707.31;;;20.57;35.23
83512;BME280;73446;0.000;0.000;2024-02-16T09:10:46;98708.63;;;20.60;35.14
83512;BME280;73446;0.000;0.000;2024-02-16T09:13:34;98711.59;;;20.58;35.31
83512;BME280;73446;0.000;0.000;2024-02-16T09:16:18;98716.13;;;20.58;35.24
83512;BME280;73446;0.000;0.000;2024-02-16T09:19:03;98708.91;;;20.58;35.09
83512;BME280;73446;0.000;0.000;2024-02-16T09:21:48;98721.19;;;20.59;35.38
83512;BME280;73446;0.000;0.000;2024-02-16T09:24:33;98710.78;;;20.58;35.25
83512;BME280;73446;0.000;0.000;2024-02-16T09:27:17;98712.38;;;20.59;35.45
83512;BME280;73446;0.000;0.000;2024-02-16T09:30:03;98726.00;;;20.57;35.12
83512;BME280;73446;0.000;0.000;2024-02-16T09:32:47;98731.06;;;20.59;35.42
83512;BME280;73446;0.000;0.000;2024-02-16T09:35:31;98733.47;;;20.60;35.40
83512;BME280;73446;0.000;0.000;2024-02-16T09:38:15;98735.34;;;20.60;35.33
83512;BME280;73446;0.000;0.000;2024-02-16T09:41:00;98738.28;;;20.58;35.14
83512;BME280;73446;0.000;0.000;2024-02-16T09:43:45;98737.22;;;20.59;35.38
83512;BME280;73446;0.000;0.000;2024-02-16T09:46:30;98743.06;;;20.62;35.45
83512;BME280;73446;0.000;0.000;2024-02-16T09:49:17;98732.66;;;20.60;35.36
83512;BME280;73446;0.000;0.000;2024-02-16T09:52:03;98738.81;;;20.60;35.33
83512;BME280;73446;0.000;0.000;2024-02-16T09:54:48;98735.59;;;20.58;35.52
83512;BME280;73446;0.000;0.000;2024-02-16T09:57:31;98738.28;;;20.58;35.55
83512;BME280;73446;0.000;0.000;2024-02-16T10:00:15;98740.16;;;20.58;35.50
83512;BME280;73446;0.000;0.000;2024-02-16T10:03:00;98734.00;;;20.57;35.73
83512;BME280;73446;0.000;0.000;2024-02-16T10:05:44;98738.56;;;20.57;35.95
83512;BME280;73446;0.000;0.000;2024-02-16T10:08:28;98743.91;;;20.57;35.75
83512;BME280;73446;0.000;0.000;2024-02-16T10:11:15;98743.09;;;20.56;35.90
83512;BME280;73446;0.000;0.000;2024-02-16T10:14:00;98756.97;;;20.58;35.65
83512;BME280;73446;0.000;0.000;2024-02-16T10:16:47;98755.38;;;20.57;35.88
83512;BME280;73446;0.000;0.000;2024-02-16T10:19:32;98764.19;;;20.58;36.08
83512;BME280;73446;0.000;0.000;2024-02-16T10:22:25;98760.72;;;20.57;35.99
83512;BME280;73446;0.000;0.000;2024-02-16T10:25:09;98761.50;;;20.58;35.86
83512;BME280;73446;0.000;0.000;2024-02-16T10:27:57;98767.66;;;20.58;36.09
83512;BME280;73446;0.000;0.000;2024-02-16T10:30:43;98764.97;;;20.58;36.00
83512;BME280;73446;0.000;0.000;2024-02-16T10:33:28;98769.25;;;20.59;36.12
83512;BME280;73446;0.000;0.000;2024-02-16T10:36:13;98769.25;;;20.59;36.20
83512;BME280;73446;0.000;0.000;2024-02-16T10:38:57;98768.44;;;20.59;36.07
83512;BME280;73446;0.000;0.000;2024-02-16T10:41:42;98776.47;;;20.59;36.06
83512;BME280;73446;0.000;0.000;2024-02-16T10:44:28;98774.59;;;20.59;36.14
83512;BME280;73446;0.000;0.000;2024-02-16T10:47:12;98778.06;;;20.60;36.00
83512;BME280;73446;0.000;0.000;2024-02-16T10:49:56;98788.47;;;20.62;36.00
83512;BME280;73446;0.000;0.000;2024-02-16T10:52:43;98783.13;;;20.62;36.05
83512;BME280;73446;0.000;0.000;2024-02-16T10:55:29;98790.03;;;20.63;35.96
83512;BME280;73446;0.000;0.000;2024-02-16T10:58:13;98788.47;;;20.62;35.95
83512;BME280;73446;0.000;0.000;2024-02-16T11:00:58;98785.78;;;20.62;36.15
83512;BME280;73446;0.000;0.000;2024-02-16T11:04:00;98786.28;;;20.64;35.97
83512;BME280;73446;0.000;0.000;2024-02-16T11:06:51;98784.13;;;20.66;36.12
83512;BME280;73446;0.000;0.000;2024-02-16T11:09:39;98778.78;;;20.66;36.02
83512;BME280;73446;0.000;0.000;2024-02-16T11:12:23;98784.13;;;20.66;36.00
83512;BME280;73446;0.000;0.000;2024-02-16T11:15:07;98781.75;;;20.64;36.08
83512;BME280;73446;0.000;0.000;2024-02-16T11:17:56;98790.03;;;20.63;36.03
83512;BME280;73446;0.000;0.000;2024-02-16T11:20:42;98783.13;;;20.62;36.36
83512;BME280;73446;0.000;0.000;2024-02-16T11:23:31;98782.31;;;20.61;36.40
83512;BME280;73446;0.000;0.000;2024-02-16T11:26:17;98786.06;;;20.60;36.29
83512;BME280;73446;0.000;0.000;2024-02-16T11:29:01;98783.13;;;20.62;35.98
83512;BME280;73446;0.000;0.000;2024-02-16T11:31:45;98782.00;;;20.63;36.61
83512;BME280;73446;0.000;0.000;2024-02-16T11:34:30;98790.34;;;20.61;36.42
83512;BME280;73446;0.000;0.000;2024-02-16T11:37:14;98783.13;;;20.62;36.47
83512;BME280;73446;0.000;0.000;2024-02-16T11:39:59;98778.53;;;20.62;36.42
83512;BME280;73446;0.000;0.000;2024-02-16T11:42:43;98783.88;;;20.62;36.46
83512;BME280;73446;0.000;0.000;2024-02-16T11:45:33;98778.53;;;20.62;36.56
83512;BME280;73446;0.000;0.000;2024-02-16T11:48:21;98782.81;;;20.63;36.49
83512;BME280;73446;0.000;0.000;2024-02-16T11:51:06;98790.03;;;20.63;36.63
83512;BME280;73446;0.000;0.000;2024-02-16T11:53:56;98780.94;;;20.64;36.91
83512;BME280;73446;0.000;0.000;2024-02-16T11:56:48;98787.34;;;20.63;36.65
83512;BME280;73446;0.000;0.000;2024-02-16T11:59:35;98791.63;;;20.64;36.73
83512;BME280;73446;0.000;0.000;2024-02-16T12:02:20;98788.94;;;20.64;36.47
83512;BME280;73446;0.000;0.000;2024-02-16T12:05:07;98797.50;;;20.66;36.73
83512;BME280;73446;0.000;0.000;2024-02-16T12:07:52;98800.97;;;20.66;36.53
83512;BME280;73446;0.000;0.000;2024-02-16T12:10:36;98800.97;;;20.66;36.92
83512;BME280;73446;0.000;0.000;2024-02-16T12:13:20;98803.91;;;20.65;36.81
83512;BME280;73446;0.000;0.000;2024-02-16T12:16:05;98800.16;;;20.66;36.97
83512;BME280;73446;0.000;0.000;2024-02-16T12:18:50;98805.50;;;20.66;37.13
83512;BME280;73446;0.000;0.000;2024-02-16T12:21:34;98800.97;;;20.66;36.95
83512;BME280;73446;0.000;0.000;2024-02-16T12:24:19;98806.28;;;20.66;37.08
83512;BME280;73446;0.000;0.000;2024-02-16T12:27:04;98805.50;;;20.66;37.21
83512;BME280;73446;0.000;0.000;2024-02-16T12:29:47;98818.84;;;20.66;37.23
83512;BME280;73446;0.000;0.000;2024-02-16T12:32:34;98811.13;;;20.64;37.14
83512;BME280;73446;0.000;0.000;2024-02-16T12:35:18;98822.59;;;20.65;37.07
83512;BME280;73446;0.000;0.000;2024-02-16T12:38:02;98815.66;;;20.64;37.05
83512;BME280;73446;0.000;0.000;2024-02-16T12:40:47;98816.19;;;20.66;37.14
83512;BME280;73446;0.000;0.000;2024-02-16T12:43:30;98814.59;;;20.65;37.34
83512;BME280;73446;0.000;0.000;2024-02-16T12:46:15;98813.50;;;20.66;37.49
83512;BME280;73446;0.000;0.000;2024-02-16T12:49:00;98822.31;;;20.66;37.41
83512;BME280;73446;0.000;0.000;2024-02-16T12:51:44;98819.38;;;20.68;37.29
83512;BME280;73446;0.000;0.000;2024-02-16T12:54:30;98832.44;;;20.69;37.27
83512;BME280;73446;0.000;0.000;2024-02-16T12:57:15;98823.63;;;20.69;37.60
83512;BME280;73446;0.000;0.000;2024-02-16T12:59:59;98828.19;;;20.68;37.70
83512;BME280;73446;0.000;0.000;2024-02-16T13:02:44;98821.78;;;20.69;37.51
83512;BME280;73446;0.000;0.000;2024-02-16T13:05:28;98825.25;;;20.70;37.58
83512;BME280;73446;0.000;0.000;2024-02-16T13:08:13;98817.22;;;20.70;37.49
83512;BME280;73446;0.000;0.000;2024-02-16T13:10:58;98812.69;;;20.70;37.54
83512;BME280;73446;0.000;0.000;2024-02-16T13:13:42;98817.22;;;20.70;37.46
83512;BME280;73446;0.000;0.000;2024-02-16T13:16:26;98812.69;;;20.70;37.66
83512;BME280;73446;0.000;0.000;2024-02-16T13:19:10;98824.16;;;20.71;37.60
83512;BME280;73446;0.000;0.000;2024-02-16T13:21:58;98828.72;;;20.70;37.62
83512;BME280;73446;0.000;0.000;2024-02-16T13:24:42;98830.31;;;20.71;37.76
83512;BME280;73446;0.000;0.000;2024-02-16T13:27:26;98826.56;;;20.72;37.64
83512;BME280;73446;0.000;0.000;2024-02-16T13:30:11;98826.56;;;20.72;37.73
83512;BME280;73446;0.000;0.000;2024-02-16T13:32:55;98828.72;;;20.70;37.75
83512;BME280;73446;0.000;0.000;2024-02-16T13:35:39;98832.19;;;20.71;37.57
83512;BME280;73446;0.000;0.000;2024-02-16T13:38:23;98828.44;;;20.72;37.70
83512;BME280;73446;0.000;0.000;2024-02-16T13:41:10;98833.78;;;20.72;37.79
83512;BME280;73446;0.000;0.000;2024-02-16T13:43:56;98823.91;;;20.72;37.96
83512;BME280;73446;0.000;0.000;2024-02-16T13:46:40;98835.38;;;20.73;37.86
83512;BME280;73446;0.000;0.000;2024-02-16T13:49:25;98838.03;;;20.73;37.77
83512;BME280;73446;0.000;0.000;2024-02-16T13:52:09;98837.25;;;20.72;37.75
83512;BME280;73446;0.000;0.000;2024-02-16T13:54:53;98839.91;;;20.72;37.99
83512;BME280;73446;0.000;0.000;2024-02-16T13:57:38;98851.41;;;20.73;37.98
83512;BME280;73446;0.000;0.000;2024-02-16T14:00:22;98843.38;;;20.73;37.93
83512;BME280;73446;0.000;0.000;2024-02-16T14:03:09;98847.13;;;20.72;37.85
83512;BME280;73446;0.000;0.000;2024-02-16T14:05:53;98858.59;;;20.72;38.03
83512;BME280;73446;0.000;0.000;2024-02-16T14:08:36;98850.59;;;20.72;37.96
83512;BME280;73446;0.000;0.000;2024-02-16T14:11:21;98849.78;;;20.72;38.08
83512;BME280;73446;0.000;0.000;2024-02-16T14:14:06;98855.66;;;20.74;37.94
83512;BME280;73446;0.000;0.000;2024-02-16T14:16:50;98855.66;;;20.74;38.33
83512;BME280;73446;0.000;0.000;2024-02-16T14:19:35;98855.66;;;20.74;38.11
83512;BME280;73446;0.000;0.000;2024-02-16T14:22:21;98856.47;;;20.74;38.27
83512;BME280;73446;0.000;0.000;2024-02-16T14:25:10;98857.53;;;20.73;38.08
83512;BME280;73446;0.000;0.000;2024-02-16T14:27:54;98859.94;;;20.75;38.15
83512;BME280;73446;0.000;0.000;2024-02-16T14:30:38;98854.59;;;20.75;38.24
83512;BME280;73446;0.000;0.000;2024-02-16T14:33:24;98861.00;;;20.74;38.10
83512;BME280;73446;0.000;0.000;2024-02-16T14:36:09;98874.09;;;20.75;38.41
83512;BME280;73446;0.000;0.000;2024-02-16T14:38:53;98867.41;;;20.73;38.32
83512;BME280;73446;0.000;0.000;2024-02-16T14:41:40;98869.00;;;20.74;38.27
83512;BME280;73446;0.000;0.000;2024-02-16T14:44:24;98871.69;;;20.74;38.11
83512;BME280;73446;0.000;0.000;2024-02-16T14:47:08;98871.69;;;20.74;38.24